Nearby METAR Reports

 

K8A0 - Albertville Muni, Alabama, USA
Distance from station: SW 1mi, 2km
Updated: 11/17/2019 8:55am
Clear
Clear
 Wind from SE
Wind: SE 5 mph , 7 km/h
Temperature: 48°F , 9°C
Wind Chill: 46°F , 8°C
Dew Point: 32°F , 0°C
Humidity: 54%
Barometer: 30.06 inHg , 1017.9 hPa
Clouds: Clear
Visibility: 10 miles , 16 km
2019/11/17 14:55 K8A0 171455Z AUTO 13004KT 10SM CLR 09/00 A3006 RMK AO2
KGAD - Gadsden Muni, Alabama, USA
Distance from station: SSE 21mi, 35km
Updated: 11/17/2019 8:56am
Partly cloudy
Partly cloudy
 Wind from calm
Wind: Calm
Temperature: 45°F , 7°C
Dew Point: 36°F , 2°C
Humidity: 71%
Barometer: 30.10 inHg , 1019.3 hPa
Clouds: Partly cloudy
Visibility: 10 miles , 16 km
Cloud details: Partly cloudy 4300 ft
2019/11/17 14:56 KGAD 171456Z AUTO 00000KT 10SM SCT043 07/02 A3010 RMK AO2 SLP199 T00670022 58001
 
K4A6 - Scottsboro, Alabama, USA
Distance from station: NNE 33mi, 53km
Updated: 11/17/2019 8:55am
Clear
Clear
 Wind from NNE
Wind: NNE 5 mph , 7 km/h
Temperature: 45°F , 7°C
Wind Chill: 42°F , 6°C
Dew Point: 36°F , 2°C
Humidity: 71%
Barometer: 30.09 inHg , 1019 hPa
Clouds: Clear
Visibility: 10 miles , 16 km
2019/11/17 14:55 K4A6 171455Z AUTO 02004KT 10SM CLR 07/02 A3009 RMK AO2
K4A9 - Ft Payne/Isbell, Alabama, USA
Distance from station: ENE 33mi, 54km
Updated: 11/17/2019 8:55am
Partly cloudy
Partly cloudy
 Wind from NNE
Wind: NNE 5 mph , 7 km/h
Temperature: 48°F , 9°C
Wind Chill: 46°F , 8°C
Dew Point: 37°F , 3°C
Humidity: 66%
Barometer: 30.07 inHg , 1018.3 hPa
Clouds: Partly cloudy
Visibility: 10 miles , 16 km
Cloud details: Partly cloudy 3500 ft
2019/11/17 14:55 K4A9 171455Z AUTO 03004KT 10SM SCT035 09/03 A3007 RMK AO2 T00910031
 
KCMD - Cullman/Folsom F, Alabama, USA
Distance from station: W 35mi, 57km
Updated: 11/17/2019 8:55am
Clear
Clear
 Wind from ESE
Wind: ESE 3 mph , 6 km/h
Temperature: 52°F , 11°C
Dew Point: 32°F , 0°C
Humidity: 47%
Barometer: 30.08 inHg , 1018.6 hPa
Clouds: Clear
Visibility: 10 miles , 16 km
2019/11/17 14:55 KCMD 171455Z AUTO 11003KT 10SM CLR 11/00 A3008 RMK AO2 T01061003
KHUA - Redstone Arsenal, Alabama, USA
Distance from station: NW 40mi, 64km
Updated: 11/17/2019 8:58am
Clear
Clear
 Wind from calm
Wind: Calm
Temperature: 45°F , 7°C
Dew Point: 36°F , 2°C
Humidity: 71%
Barometer: 30.06 inHg , 1017.9 hPa
Clouds: Clear
Visibility: 10 miles , 16 km
2019/11/17 14:58 KHUA 171458Z AUTO 00000KT 10SM CLR 07/02 A3006 RMK AO2 SLP183 T00680016 58004 $
 
KHSV - Huntsville, Alabama, USA
Distance from station: NW 42mi, 68km
Updated: 11/17/2019 8:53am
Partly cloudy
Partly cloudy
 Wind from SE
Wind: SE 3 mph , 6 km/h
Temperature: 43°F , 6°C
Dew Point: 34°F , 1°C
Humidity: 71%
Barometer: 30.08 inHg , 1018.6 hPa
Clouds: Partly cloudy
Visibility: 10 miles , 16 km
Cloud details: Partly cloudy 25000 ft
2019/11/17 14:53 KHSV 171453Z 13003KT 10SM SCT250 06/01 A3008 RMK AO2 SLP185 T00610006 58002 $
KMDQ - Huntsville/Madis, Alabama, USA
Distance from station: NNW 47mi, 75km
Updated: 11/17/2019 8:55am
Clear
Clear
 Wind from calm
Wind: Calm
Temperature: 41°F , 5°C
Dew Point: 32°F , 0°C
Humidity: 70%
Barometer: 30.07 inHg , 1018.3 hPa
Clouds: Clear
Visibility: 10 miles , 16 km
2019/11/17 14:55 KMDQ 171455Z AUTO 00000KT 10SM CLR 05/00 A3007 RMK A02 T00460003
 
KASN - Talladega, Alabama, USA
Distance from station: SSE 48mi, 77km
Updated: 11/17/2019 8:55am
Haze, Overcast
Haze, Overcast
 Wind from calm
Wind: Calm
Temperature: 43°F , 6°C
Dew Point: 37°F , 3°C
Humidity: 81%
Barometer: 30.09 inHg , 1019 hPa
Summary: Haze
Clouds: Overcast
Visibility: 1 mile , 2 km
Cloud details: Overcast 700 ft
2019/11/17 14:55 KASN 171455Z AUTO 00000KT 1SM HZ VV007 06/03 A3009 RMK AO2 T00630027
KDCU - Decatur, Alabama, USA
Distance from station: NW 49mi, 80km
Updated: 11/17/2019 8:53am
Clear
Clear
 Wind from calm
Wind: Calm
Temperature: 43°F , 6°C
Dew Point: 36°F , 2°C
Humidity: 76%
Barometer: 30.08 inHg , 1018.6 hPa
Clouds: Clear
Visibility: 9 miles , 14 km
2019/11/17 14:53 KDCU 171453Z AUTO 00000KT 9SM CLR 06/02 A3008 RMK AO2 SLP188 T00610017 58004 $
 
KGKT - Sevierville, Tennessee, USA
Distance from station: NE 235mi, 378km
Updated: 11/17/2019 8:55am
Clear
Clear
 Wind from calm
Wind: Calm
Temperature: 41°F , 5°C
Dew Point: 34°F , 1°C
Humidity: 76%
Barometer: 30.08 inHg , 1018.6 hPa
Clouds: Clear
Visibility: 10 miles , 16 km
2019/11/17 14:55 KGKT 171455Z AUTO 00000KT 10SM CLR 05/01 A3008 RMK A01
KECP - Panama City, Florida, USA
Distance from station: S 330mi, 531km
Updated: 11/17/2019 8:53am
Clear
Clear
 Wind from N
Wind: N 8 mph , 13 km/h
Temperature: 57°F , 14°C
Dew Point: 48°F , 9°C
Humidity: 72%
Barometer: 30.04 inHg , 1017.3 hPa
Clouds: Clear
Visibility: 10 miles , 16 km
2019/11/17 14:53 KECP 171453Z 01007KT 10SM CLR 14/09 A3004 RMK AO2 SLP185 T01440089 50004
 
KNYL - Yuma MCAS, Arizona, USA
Distance from station: SW 1900mi, 3600km
Updated: 11/17/2019 8:57am
Clear
Clear
 Wind from NE
Wind: NE 15 mph , 24 km/h
Temperature: 64°F , 18°C
Dew Point: 28°F , -2°C
Humidity: 26%
Barometer: 29.98 inHg , 1015.2 hPa
Clouds: Clear
Visibility: 10 miles , 16 km
2019/11/17 14:57 KNYL 171457Z AUTO 04013KT 10SM CLR 18/M02 A2998 RMK AO2 SLP149 T01781017 53011 $